Denny, Texas
Current Conditions -  °F | °C
As of 10:55 PM on Monday 20 Oct 2014 (Local Time) from KLXY Reporting Station
Clear Clear  
Wind Chill: 64°   Ceiling: Unl
Heat Index: 64°   Visibility: 10mi
Dew Point: 59°   Wind: 3mph
Humidity: 85%   Direction: 140°SE
Pressure: 30.06"   Gusts: NA
Location:  31.3327°N, 96.6013°W
Report Text: KLXY 210355Z AUTO 14003KT 10SM CLR 18/15 A3006 RMK AO2 T01770151
Loading
Personal Weather Stations






























Interactive Weather Map
Tropical Storm Tracking
New forecast layout! Learn more

10-Day Weather Forecast

Advertisements
Track Severe Weather on mobile